sensor_id;sensor_type;location;lat;lon;timestamp;temperature;humidity
56240;DHT22;42154;51.992;5.896;2022-09-09T00:01:54;16.30;99.90
56240;DHT22;42154;51.992;5.896;2022-09-09T00:04:33;16.30;99.90
56240;DHT22;42154;51.992;5.896;2022-09-09T00:07:03;16.30;99.90
56240;DHT22;42154;51.992;5.896;2022-09-09T00:09:31;16.30;99.90
56240;DHT22;42154;51.992;5.896;2022-09-09T00:12:09;16.30;99.90
56240;DHT22;42154;51.992;5.896;2022-09-09T00:14:51;16.30;99.90
56240;DHT22;42154;51.992;5.896;2022-09-09T00:17:26;16.30;99.90
56240;DHT22;42154;51.992;5.896;2022-09-09T00:20:19;16.30;99.90
56240;DHT22;42154;51.992;5.896;2022-09-09T00:22:53;16.30;99.90
56240;DHT22;42154;51.992;5.896;2022-09-09T00:28:26;16.40;99.90
56240;DHT22;42154;51.992;5.896;2022-09-09T00:30:53;16.30;99.90
56240;DHT22;42154;51.992;5.896;2022-09-09T00:33:23;16.30;99.90
56240;DHT22;42154;51.992;5.896;2022-09-09T00:35:56;16.30;99.90
56240;DHT22;42154;51.992;5.896;2022-09-09T00:38:37;16.30;99.90
56240;DHT22;42154;51.992;5.896;2022-09-09T00:44:06;16.40;99.90
56240;DHT22;42154;51.992;5.896;2022-09-09T00:52:23;16.40;99.90
56240;DHT22;42154;51.992;5.896;2022-09-09T00:55:05;16.40;99.90
56240;DHT22;42154;51.992;5.896;2022-09-09T00:57:34;16.30;99.90
56240;DHT22;42154;51.992;5.896;2022-09-09T01:07:58;16.10;99.90
56240;DHT22;42154;51.992;5.896;2022-09-09T01:13:20;16.00;99.90
56240;DHT22;42154;51.992;5.896;2022-09-09T01:15:48;16.00;99.90
56240;DHT22;42154;51.992;5.896;2022-09-09T01:18:17;15.90;99.90
56240;DHT22;42154;51.992;5.896;2022-09-09T01:26:28;15.80;99.90
56240;DHT22;42154;51.992;5.896;2022-09-09T01:28:58;15.80;99.90
56240;DHT22;42154;51.992;5.896;2022-09-09T01:31:41;15.70;99.90
56240;DHT22;42154;51.992;5.896;2022-09-09T01:34:12;15.70;99.90
56240;DHT22;42154;51.992;5.896;2022-09-09T01:36:46;15.70;99.90
56240;DHT22;42154;51.992;5.896;2022-09-09T01:39:15;15.70;99.90
56240;DHT22;42154;51.992;5.896;2022-09-09T01:41:43;15.60;99.90
56240;DHT22;42154;51.992;5.896;2022-09-09T01:44:12;15.60;99.90
56240;DHT22;42154;51.992;5.896;2022-09-09T01:46:40;15.60;99.90
56240;DHT22;42154;51.992;5.896;2022-09-09T01:49:12;15.60;99.90
56240;DHT22;42154;51.992;5.896;2022-09-09T01:51:39;15.60;99.90
56240;DHT22;42154;51.992;5.896;2022-09-09T01:54:08;15.60;99.90
56240;DHT22;42154;51.992;5.896;2022-09-09T02:02:15;15.40;99.90
56240;DHT22;42154;51.992;5.896;2022-09-09T02:05:24;15.40;99.90
56240;DHT22;42154;51.992;5.896;2022-09-09T02:08:09;15.40;99.90
56240;DHT22;42154;51.992;5.896;2022-09-09T02:11:33;15.40;99.90
56240;DHT22;42154;51.992;5.896;2022-09-09T02:14:10;15.30;99.90
56240;DHT22;42154;51.992;5.896;2022-09-09T02:16:50;15.30;99.90
56240;DHT22;42154;51.992;5.896;2022-09-09T02:19:25;15.30;99.90
56240;DHT22;42154;51.992;5.896;2022-09-09T02:22:02;15.30;99.90
56240;DHT22;42154;51.992;5.896;2022-09-09T02:24:31;15.20;99.90
56240;DHT22;42154;51.992;5.896;2022-09-09T02:27:11;15.20;99.90
56240;DHT22;42154;51.992;5.896;2022-09-09T02:29:42;15.20;99.90
56240;DHT22;42154;51.992;5.896;2022-09-09T02:32:17;15.20;99.90
56240;DHT22;42154;51.992;5.896;2022-09-09T02:34:48;15.20;99.90
56240;DHT22;42154;51.992;5.896;2022-09-09T02:37:17;15.10;99.90
56240;DHT22;42154;51.992;5.896;2022-09-09T02:39:48;15.10;99.90
56240;DHT22;42154;51.992;5.896;2022-09-09T02:42:17;15.00;99.90
56240;DHT22;42154;51.992;5.896;2022-09-09T02:44:44;15.00;99.90
56240;DHT22;42154;51.992;5.896;2022-09-09T02:47:23;15.00;99.90
56240;DHT22;42154;51.992;5.896;2022-09-09T02:52:38;15.00;99.90
56240;DHT22;42154;51.992;5.896;2022-09-09T02:55:16;15.00;99.90
56240;DHT22;42154;51.992;5.896;2022-09-09T02:57:47;14.90;99.90
56240;DHT22;42154;51.992;5.896;2022-09-09T03:00:16;14.90;99.90
56240;DHT22;42154;51.992;5.896;2022-09-09T03:02:41;14.90;99.90
56240;DHT22;42154;51.992;5.896;2022-09-09T03:05:08;14.80;99.90
56240;DHT22;42154;51.992;5.896;2022-09-09T03:07:34;14.80;99.90
56240;DHT22;42154;51.992;5.896;2022-09-09T03:10:01;14.80;99.90
56240;DHT22;42154;51.992;5.896;2022-09-09T03:12:27;14.90;99.90
56240;DHT22;42154;51.992;5.896;2022-09-09T03:14:53;14.80;99.90
56240;DHT22;42154;51.992;5.896;2022-09-09T03:17:19;14.80;99.90
56240;DHT22;42154;51.992;5.896;2022-09-09T03:19:50;14.80;99.90
56240;DHT22;42154;51.992;5.896;2022-09-09T03:22:18;14.80;99.90
56240;DHT22;42154;51.992;5.896;2022-09-09T03:24:44;14.80;99.90
56240;DHT22;42154;51.992;5.896;2022-09-09T03:27:12;14.80;99.90
56240;DHT22;42154;51.992;5.896;2022-09-09T03:29:40;14.70;99.90
56240;DHT22;42154;51.992;5.896;2022-09-09T03:32:09;14.80;99.90
56240;DHT22;42154;51.992;5.896;2022-09-09T03:34:39;14.70;99.90
56240;DHT22;42154;51.992;5.896;2022-09-09T03:37:08;14.70;99.90
56240;DHT22;42154;51.992;5.896;2022-09-09T03:39:35;14.70;99.90
56240;DHT22;42154;51.992;5.896;2022-09-09T03:42:01;14.70;99.90
56240;DHT22;42154;51.992;5.896;2022-09-09T03:44:30;14.70;99.90
56240;DHT22;42154;51.992;5.896;2022-09-09T03:46:57;14.60;99.90
56240;DHT22;42154;51.992;5.896;2022-09-09T03:49:22;14.70;99.90
56240;DHT22;42154;51.992;5.896;2022-09-09T03:51:49;14.60;99.90
56240;DHT22;42154;51.992;5.896;2022-09-09T03:54:15;14.60;99.90
56240;DHT22;42154;51.992;5.896;2022-09-09T03:56:41;14.70;99.90
56240;DHT22;42154;51.992;5.896;2022-09-09T03:59:07;14.70;99.90
56240;DHT22;42154;51.992;5.896;2022-09-09T04:01:34;14.60;99.90
56240;DHT22;42154;51.992;5.896;2022-09-09T04:04:00;14.60;99.90
56240;DHT22;42154;51.992;5.896;2022-09-09T04:06:28;14.70;99.90
56240;DHT22;42154;51.992;5.896;2022-09-09T04:08:55;14.70;99.90
56240;DHT22;42154;51.992;5.896;2022-09-09T04:11:22;14.70;99.90
56240;DHT22;42154;51.992;5.896;2022-09-09T04:13:50;14.80;99.90
56240;DHT22;42154;51.992;5.896;2022-09-09T04:16:17;14.80;99.90
56240;DHT22;42154;51.992;5.896;2022-09-09T04:18:43;14.90;99.90
56240;DHT22;42154;51.992;5.896;2022-09-09T04:21:10;14.90;99.90
56240;DHT22;42154;51.992;5.896;2022-09-09T04:23:36;14.90;99.90
56240;DHT22;42154;51.992;5.896;2022-09-09T04:26:03;15.00;99.90
56240;DHT22;42154;51.992;5.896;2022-09-09T04:28:33;15.00;99.90
56240;DHT22;42154;51.992;5.896;2022-09-09T04:31:08;15.00;99.90
56240;DHT22;42154;51.992;5.896;2022-09-09T04:33:35;15.00;99.90
56240;DHT22;42154;51.992;5.896;2022-09-09T04:36:02;14.90;99.90
56240;DHT22;42154;51.992;5.896;2022-09-09T04:38:30;14.90;99.90
56240;DHT22;42154;51.992;5.896;2022-09-09T04:40:55;14.90;99.90
56240;DHT22;42154;51.992;5.896;2022-09-09T04:43:22;15.00;99.90
56240;DHT22;42154;51.992;5.896;2022-09-09T04:45:50;14.90;99.90
56240;DHT22;42154;51.992;5.896;2022-09-09T04:48:17;15.00;99.90
56240;DHT22;42154;51.992;5.896;2022-09-09T04:50:43;15.00;99.90
56240;DHT22;42154;51.992;5.896;2022-09-09T04:53:11;15.00;99.90
56240;DHT22;42154;51.992;5.896;2022-09-09T04:55:38;15.10;99.90
56240;DHT22;42154;51.992;5.896;2022-09-09T04:58:08;15.00;99.90
56240;DHT22;42154;51.992;5.896;2022-09-09T05:00:35;15.10;99.90
56240;DHT22;42154;51.992;5.896;2022-09-09T05:03:05;15.00;99.90
56240;DHT22;42154;51.992;5.896;2022-09-09T05:05:32;15.00;99.90
56240;DHT22;42154;51.992;5.896;2022-09-09T05:08:07;15.10;99.90
56240;DHT22;42154;51.992;5.896;2022-09-09T05:10:39;15.10;99.90
56240;DHT22;42154;51.992;5.896;2022-09-09T05:13:05;15.10;99.90
56240;DHT22;42154;51.992;5.896;2022-09-09T05:15:32;15.10;99.90
56240;DHT22;42154;51.992;5.896;2022-09-09T05:17:59;15.10;99.90
56240;DHT22;42154;51.992;5.896;2022-09-09T05:20:27;15.20;99.90
56240;DHT22;42154;51.992;5.896;2022-09-09T05:22:54;15.20;99.90
56240;DHT22;42154;51.992;5.896;2022-09-09T05:25:21;15.20;99.90
56240;DHT22;42154;51.992;5.896;2022-09-09T05:27:48;15.20;99.90
56240;DHT22;42154;51.992;5.896;2022-09-09T05:30:15;15.30;99.90
56240;DHT22;42154;51.992;5.896;2022-09-09T05:32:41;15.30;99.90
56240;DHT22;42154;51.992;5.896;2022-09-09T05:35:07;15.40;99.90
56240;DHT22;42154;51.992;5.896;2022-09-09T05:37:33;15.40;99.90
56240;DHT22;42154;51.992;5.896;2022-09-09T05:40:00;15.40;99.90
56240;DHT22;42154;51.992;5.896;2022-09-09T05:42:30;15.40;99.90
56240;DHT22;42154;51.992;5.896;2022-09-09T05:44:56;15.50;99.90
56240;DHT22;42154;51.992;5.896;2022-09-09T05:47:22;15.50;99.90
56240;DHT22;42154;51.992;5.896;2022-09-09T05:49:48;15.50;99.90
56240;DHT22;42154;51.992;5.896;2022-09-09T05:52:15;15.50;99.90
56240;DHT22;42154;51.992;5.896;2022-09-09T05:54:41;15.50;99.90
56240;DHT22;42154;51.992;5.896;2022-09-09T05:57:08;15.50;99.90
56240;DHT22;42154;51.992;5.896;2022-09-09T05:59:34;15.60;99.90
56240;DHT22;42154;51.992;5.896;2022-09-09T06:02:00;15.70;99.90
56240;DHT22;42154;51.992;5.896;2022-09-09T06:04:31;15.70;99.90
56240;DHT22;42154;51.992;5.896;2022-09-09T06:06:59;15.70;99.90
56240;DHT22;42154;51.992;5.896;2022-09-09T06:09:25;15.70;99.90
56240;DHT22;42154;51.992;5.896;2022-09-09T06:11:51;15.80;99.90
56240;DHT22;42154;51.992;5.896;2022-09-09T06:14:18;15.80;99.90
56240;DHT22;42154;51.992;5.896;2022-09-09T06:16:46;15.80;99.90
56240;DHT22;42154;51.992;5.896;2022-09-09T06:19:21;15.90;99.90
56240;DHT22;42154;51.992;5.896;2022-09-09T06:21:47;15.90;99.90
56240;DHT22;42154;51.992;5.896;2022-09-09T06:24:15;16.00;99.90
56240;DHT22;42154;51.992;5.896;2022-09-09T06:26:43;16.00;99.90
56240;DHT22;42154;51.992;5.896;2022-09-09T06:29:12;16.00;99.90
56240;DHT22;42154;51.992;5.896;2022-09-09T06:31:39;16.10;99.90
56240;DHT22;42154;51.992;5.896;2022-09-09T06:34:15;16.10;99.90
56240;DHT22;42154;51.992;5.896;2022-09-09T06:36:45;16.10;99.90
56240;DHT22;42154;51.992;5.896;2022-09-09T06:39:12;16.20;99.90
56240;DHT22;42154;51.992;5.896;2022-09-09T06:41:39;16.30;99.90
56240;DHT22;42154;51.992;5.896;2022-09-09T06:44:09;16.40;99.90
56240;DHT22;42154;51.992;5.896;2022-09-09T06:46:40;16.40;99.90
56240;DHT22;42154;51.992;5.896;2022-09-09T06:49:08;16.40;99.90
56240;DHT22;42154;51.992;5.896;2022-09-09T06:51:36;16.40;99.90
56240;DHT22;42154;51.992;5.896;2022-09-09T06:54:03;16.50;99.90
56240;DHT22;42154;51.992;5.896;2022-09-09T06:56:35;16.60;99.90
56240;DHT22;42154;51.992;5.896;2022-09-09T06:59:06;16.70;99.90
56240;DHT22;42154;51.992;5.896;2022-09-09T07:01:37;16.70;99.90
56240;DHT22;42154;51.992;5.896;2022-09-09T07:04:05;16.90;99.90
56240;DHT22;42154;51.992;5.896;2022-09-09T07:06:45;17.00;99.90
56240;DHT22;42154;51.992;5.896;2022-09-09T07:09:16;17.10;99.90
56240;DHT22;42154;51.992;5.896;2022-09-09T07:11:50;17.20;99.90
56240;DHT22;42154;51.992;5.896;2022-09-09T07:14:18;17.20;99.90
56240;DHT22;42154;51.992;5.896;2022-09-09T07:16:48;17.40;99.90
56240;DHT22;42154;51.992;5.896;2022-09-09T07:19:16;17.50;99.90
56240;DHT22;42154;51.992;5.896;2022-09-09T07:21:43;17.50;99.90
56240;DHT22;42154;51.992;5.896;2022-09-09T07:24:12;17.50;99.90
56240;DHT22;42154;51.992;5.896;2022-09-09T07:26:41;17.50;99.90
56240;DHT22;42154;51.992;5.896;2022-09-09T07:29:07;17.50;99.90
56240;DHT22;42154;51.992;5.896;2022-09-09T07:31:36;17.50;99.90
56240;DHT22;42154;51.992;5.896;2022-09-09T07:34:05;17.60;99.90
56240;DHT22;42154;51.992;5.896;2022-09-09T07:36:36;17.60;99.90
56240;DHT22;42154;51.992;5.896;2022-09-09T07:39:07;17.70;99.90
56240;DHT22;42154;51.992;5.896;2022-09-09T07:41:42;17.80;99.90
56240;DHT22;42154;51.992;5.896;2022-09-09T07:44:15;17.80;99.90
56240;DHT22;42154;51.992;5.896;2022-09-09T07:46:43;17.90;99.90
56240;DHT22;42154;51.992;5.896;2022-09-09T07:49:14;17.90;99.90
56240;DHT22;42154;51.992;5.896;2022-09-09T07:51:43;18.00;99.90
56240;DHT22;42154;51.992;5.896;2022-09-09T07:54:12;18.10;99.90
56240;DHT22;42154;51.992;5.896;2022-09-09T07:56:41;18.10;99.90
56240;DHT22;42154;51.992;5.896;2022-09-09T07:59:09;18.00;99.90
56240;DHT22;42154;51.992;5.896;2022-09-09T08:01:44;18.00;99.90
56240;DHT22;42154;51.992;5.896;2022-09-09T08:04:17;18.00;99.90
56240;DHT22;42154;51.992;5.896;2022-09-09T08:06:50;18.10;99.90
56240;DHT22;42154;51.992;5.896;2022-09-09T08:09:20;18.10;99.90
56240;DHT22;42154;51.992;5.896;2022-09-09T08:11:47;18.20;99.90
56240;DHT22;42154;51.992;5.896;2022-09-09T08:14:13;18.20;99.90
56240;DHT22;42154;51.992;5.896;2022-09-09T08:16:45;18.20;99.90
56240;DHT22;42154;51.992;5.896;2022-09-09T08:19:15;18.20;99.90
56240;DHT22;42154;51.992;5.896;2022-09-09T08:21:43;18.10;99.90
56240;DHT22;42154;51.992;5.896;2022-09-09T08:24:10;18.00;99.90
56240;DHT22;42154;51.992;5.896;2022-09-09T08:26:42;18.00;99.90
56240;DHT22;42154;51.992;5.896;2022-09-09T08:29:11;18.00;99.90
56240;DHT22;42154;51.992;5.896;2022-09-09T08:31:46;18.00;99.90
56240;DHT22;42154;51.992;5.896;2022-09-09T08:34:13;18.10;99.90
56240;DHT22;42154;51.992;5.896;2022-09-09T08:36:44;18.10;99.90
56240;DHT22;42154;51.992;5.896;2022-09-09T08:39:13;18.00;99.90
56240;DHT22;42154;51.992;5.896;2022-09-09T08:58:23;18.10;99.90
56240;DHT22;42154;51.992;5.896;2022-09-09T09:03:46;18.10;99.90
56240;DHT22;42154;51.992;5.896;2022-09-09T09:06:25;18.20;99.90
56240;DHT22;42154;51.992;5.896;2022-09-09T09:11:42;18.30;99.90
56240;DHT22;42154;51.992;5.896;2022-09-09T09:14:23;18.30;99.90
56240;DHT22;42154;51.992;5.896;2022-09-09T09:16:58;18.40;99.90
56240;DHT22;42154;51.992;5.896;2022-09-09T09:19:28;18.40;99.90
56240;DHT22;42154;51.992;5.896;2022-09-09T09:22:04;18.60;99.90
56240;DHT22;42154;51.992;5.896;2022-09-09T09:24:53;18.60;99.90
56240;DHT22;42154;51.992;5.896;2022-09-09T09:27:35;18.60;99.90
56240;DHT22;42154;51.992;5.896;2022-09-09T09:30:21;18.60;99.90
56240;DHT22;42154;51.992;5.896;2022-09-09T09:32:58;18.60;99.80
56240;DHT22;42154;51.992;5.896;2022-09-09T09:35:25;18.50;99.90
56240;DHT22;42154;51.992;5.896;2022-09-09T09:37:51;18.50;99.90
56240;DHT22;42154;51.992;5.896;2022-09-09T09:40:19;18.40;99.90
56240;DHT22;42154;51.992;5.896;2022-09-09T09:42:57;18.40;99.90
56240;DHT22;42154;51.992;5.896;2022-09-09T09:47:59;18.50;99.70
56240;DHT22;42154;51.992;5.896;2022-09-09T09:50:25;18.60;99.70
56240;DHT22;42154;51.992;5.896;2022-09-09T09:53:20;18.60;99.70
56240;DHT22;42154;51.992;5.896;2022-09-09T09:56:02;18.70;99.50
56240;DHT22;42154;51.992;5.896;2022-09-09T09:58:32;18.90;99.50
56240;DHT22;42154;51.992;5.896;2022-09-09T10:01:00;19.00;99.50
56240;DHT22;42154;51.992;5.896;2022-09-09T10:03:32;19.30;99.30
56240;DHT22;42154;51.992;5.896;2022-09-09T10:06:03;19.30;99.00
56240;DHT22;42154;51.992;5.896;2022-09-09T10:08:32;19.30;98.60
56240;DHT22;42154;51.992;5.896;2022-09-09T10:19:27;19.10;98.90
56240;DHT22;42154;51.992;5.896;2022-09-09T10:32:41;18.80;99.30
56240;DHT22;42154;51.992;5.896;2022-09-09T10:35:31;18.70;99.30
56240;DHT22;42154;51.992;5.896;2022-09-09T10:38:17;18.80;99.10
56240;DHT22;42154;51.992;5.896;2022-09-09T10:46:16;19.10;98.60
56240;DHT22;42154;51.992;5.896;2022-09-09T10:54:35;19.10;98.50
56240;DHT22;42154;51.992;5.896;2022-09-09T10:57:17;19.00;98.80
56240;DHT22;42154;51.992;5.896;2022-09-09T10:59:52;19.00;98.80
56240;DHT22;42154;51.992;5.896;2022-09-09T11:02:26;19.00;98.80
56240;DHT22;42154;51.992;5.896;2022-09-09T11:05:04;19.10;98.70
56240;DHT22;42154;51.992;5.896;2022-09-09T11:13:15;19.20;98.30
56240;DHT22;42154;51.992;5.896;2022-09-09T11:15:47;19.20;98.30
56240;DHT22;42154;51.992;5.896;2022-09-09T11:18:20;19.20;98.40
56240;DHT22;42154;51.992;5.896;2022-09-09T11:21:00;19.20;98.50
56240;DHT22;42154;51.992;5.896;2022-09-09T11:24:15;19.10;98.50
56240;DHT22;42154;51.992;5.896;2022-09-09T11:26:38;19.10;99.10
56240;DHT22;42154;51.992;5.896;2022-09-09T11:29:29;19.00;99.80
56240;DHT22;42154;51.992;5.896;2022-09-09T11:34:55;19.30;99.90
56240;DHT22;42154;51.992;5.896;2022-09-09T11:37:35;19.30;99.90
56240;DHT22;42154;51.992;5.896;2022-09-09T11:40:25;19.40;99.90
56240;DHT22;42154;51.992;5.896;2022-09-09T11:43:10;19.40;99.90
56240;DHT22;42154;51.992;5.896;2022-09-09T11:45:40;19.40;99.60
56240;DHT22;42154;51.992;5.896;2022-09-09T11:48:32;19.40;99.70
56240;DHT22;42154;51.992;5.896;2022-09-09T11:51:05;19.40;99.50
56240;DHT22;42154;51.992;5.896;2022-09-09T11:53:47;19.40;99.60
56240;DHT22;42154;51.992;5.896;2022-09-09T11:59:00;19.60;99.40
56240;DHT22;42154;51.992;5.896;2022-09-09T12:01:37;19.50;99.40
56240;DHT22;42154;51.992;5.896;2022-09-09T12:06:53;19.30;99.90
56240;DHT22;42154;51.992;5.896;2022-09-09T12:09:44;19.40;99.90
56240;DHT22;42154;51.992;5.896;2022-09-09T12:15:17;19.60;99.90
56240;DHT22;42154;51.992;5.896;2022-09-09T12:17:45;19.80;99.90
56240;DHT22;42154;51.992;5.896;2022-09-09T12:22:54;19.80;99.70
56240;DHT22;42154;51.992;5.896;2022-09-09T12:28:04;19.60;99.90
56240;DHT22;42154;51.992;5.896;2022-09-09T12:33:19;19.50;99.80
56240;DHT22;42154;51.992;5.896;2022-09-09T12:35:55;19.40;99.90
56240;DHT22;42154;51.992;5.896;2022-09-09T12:38:41;19.40;99.70
56240;DHT22;42154;51.992;5.896;2022-09-09T12:41:26;19.40;99.60
56240;DHT22;42154;51.992;5.896;2022-09-09T12:44:04;19.60;99.60
56240;DHT22;42154;51.992;5.896;2022-09-09T12:46:42;19.70;99.30
56240;DHT22;42154;51.992;5.896;2022-09-09T12:49:29;19.90;99.10
56240;DHT22;42154;51.992;5.896;2022-09-09T12:52:02;19.90;99.00
56240;DHT22;42154;51.992;5.896;2022-09-09T12:54:30;20.00;99.10
56240;DHT22;42154;51.992;5.896;2022-09-09T12:56:55;20.00;98.90
56240;DHT22;42154;51.992;5.896;2022-09-09T12:59:34;19.90;99.10
56240;DHT22;42154;51.992;5.896;2022-09-09T13:02:01;19.90;98.90
56240;DHT22;42154;51.992;5.896;2022-09-09T13:04:26;19.80;99.10
56240;DHT22;42154;51.992;5.896;2022-09-09T13:06:52;19.70;99.20
56240;DHT22;42154;51.992;5.896;2022-09-09T13:09:19;19.70;99.20
56240;DHT22;42154;51.992;5.896;2022-09-09T13:11:52;19.70;99.20
56240;DHT22;42154;51.992;5.896;2022-09-09T13:14:39;19.60;99.10
56240;DHT22;42154;51.992;5.896;2022-09-09T13:17:19;19.60;99.40
56240;DHT22;42154;51.992;5.896;2022-09-09T13:19:45;19.60;99.90
56240;DHT22;42154;51.992;5.896;2022-09-09T13:22:13;19.60;99.90
56240;DHT22;42154;51.992;5.896;2022-09-09T13:24:39;19.70;99.90
56240;DHT22;42154;51.992;5.896;2022-09-09T13:27:31;19.80;99.90
56240;DHT22;42154;51.992;5.896;2022-09-09T13:29:56;19.90;99.90
56240;DHT22;42154;51.992;5.896;2022-09-09T13:32:24;20.00;99.90
56240;DHT22;42154;51.992;5.896;2022-09-09T13:34:55;20.10;99.90
56240;DHT22;42154;51.992;5.896;2022-09-09T13:37:34;20.20;99.90
56240;DHT22;42154;51.992;5.896;2022-09-09T13:40:03;20.30;99.90
56240;DHT22;42154;51.992;5.896;2022-09-09T13:42:33;20.40;99.90
56240;DHT22;42154;51.992;5.896;2022-09-09T13:45:03;20.50;99.80
56240;DHT22;42154;51.992;5.896;2022-09-09T13:47:36;20.50;99.30
56240;DHT22;42154;51.992;5.896;2022-09-09T13:52:49;20.40;99.00
56240;DHT22;42154;51.992;5.896;2022-09-09T13:55:17;20.30;99.10
56240;DHT22;42154;51.992;5.896;2022-09-09T13:57:54;20.30;99.20
56240;DHT22;42154;51.992;5.896;2022-09-09T14:00:21;20.20;99.10
56240;DHT22;42154;51.992;5.896;2022-09-09T14:02:48;20.10;99.10
56240;DHT22;42154;51.992;5.896;2022-09-09T14:05:14;20.00;99.20
56240;DHT22;42154;51.992;5.896;2022-09-09T14:07:42;20.00;99.40
56240;DHT22;42154;51.992;5.896;2022-09-09T14:10:09;19.90;99.40
56240;DHT22;42154;51.992;5.896;2022-09-09T14:12:35;19.80;99.40
56240;DHT22;42154;51.992;5.896;2022-09-09T14:15:03;19.90;99.70
56240;DHT22;42154;51.992;5.896;2022-09-09T14:17:29;20.00;99.30
56240;DHT22;42154;51.992;5.896;2022-09-09T14:19:55;20.10;99.10
56240;DHT22;42154;51.992;5.896;2022-09-09T14:22:22;20.20;98.90
56240;DHT22;42154;51.992;5.896;2022-09-09T14:24:48;20.20;98.50
56240;DHT22;42154;51.992;5.896;2022-09-09T14:27:14;20.20;98.40
56240;DHT22;42154;51.992;5.896;2022-09-09T14:29:41;20.10;98.40
56240;DHT22;42154;51.992;5.896;2022-09-09T14:32:07;20.10;98.40
56240;DHT22;42154;51.992;5.896;2022-09-09T14:34:33;20.00;98.40
56240;DHT22;42154;51.992;5.896;2022-09-09T14:36:59;19.90;98.50
56240;DHT22;42154;51.992;5.896;2022-09-09T14:39:24;19.90;98.60
56240;DHT22;42154;51.992;5.896;2022-09-09T14:41:50;19.90;98.70
56240;DHT22;42154;51.992;5.896;2022-09-09T14:44:16;19.90;98.70
56240;DHT22;42154;51.992;5.896;2022-09-09T14:46:42;20.00;98.80
56240;DHT22;42154;51.992;5.896;2022-09-09T14:49:11;20.00;98.70
56240;DHT22;42154;51.992;5.896;2022-09-09T14:51:38;20.00;98.70
56240;DHT22;42154;51.992;5.896;2022-09-09T14:54:04;20.10;98.70
56240;DHT22;42154;51.992;5.896;2022-09-09T14:56:32;20.10;98.60
56240;DHT22;42154;51.992;5.896;2022-09-09T14:59:00;20.20;98.70
56240;DHT22;42154;51.992;5.896;2022-09-09T15:01:27;20.20;98.70
56240;DHT22;42154;51.992;5.896;2022-09-09T15:03:55;20.30;98.70
56240;DHT22;42154;51.992;5.896;2022-09-09T15:06:23;20.40;98.70
56240;DHT22;42154;51.992;5.896;2022-09-09T15:08:51;20.40;98.60
56240;DHT22;42154;51.992;5.896;2022-09-09T15:11:17;20.40;98.60
56240;DHT22;42154;51.992;5.896;2022-09-09T15:13:43;20.30;98.50
56240;DHT22;42154;51.992;5.896;2022-09-09T15:16:14;20.20;98.60
56240;DHT22;42154;51.992;5.896;2022-09-09T15:18:41;20.20;98.60
56240;DHT22;42154;51.992;5.896;2022-09-09T15:21:28;20.20;98.70
56240;DHT22;42154;51.992;5.896;2022-09-09T15:23:56;20.30;98.60
56240;DHT22;42154;51.992;5.896;2022-09-09T15:26:22;20.10;98.70
56240;DHT22;42154;51.992;5.896;2022-09-09T15:28:48;20.10;98.90
56240;DHT22;42154;51.992;5.896;2022-09-09T15:31:28;20.00;99.10
56240;DHT22;42154;51.992;5.896;2022-09-09T15:33:56;20.00;99.20
56240;DHT22;42154;51.992;5.896;2022-09-09T15:36:31;19.90;99.50
56240;DHT22;42154;51.992;5.896;2022-09-09T15:38:58;19.80;99.60
56240;DHT22;42154;51.992;5.896;2022-09-09T15:41:24;19.80;99.90
56240;DHT22;42154;51.992;5.896;2022-09-09T15:43:52;19.70;99.90
56240;DHT22;42154;51.992;5.896;2022-09-09T15:48:50;19.70;99.90
56240;DHT22;42154;51.992;5.896;2022-09-09T15:51:16;19.60;99.90
56240;DHT22;42154;51.992;5.896;2022-09-09T15:53:42;19.60;99.90
56240;DHT22;42154;51.992;5.896;2022-09-09T15:56:09;19.50;99.90
56240;DHT22;42154;51.992;5.896;2022-09-09T15:58:36;19.50;99.90
56240;DHT22;42154;51.992;5.896;2022-09-09T16:01:06;19.50;99.90
56240;DHT22;42154;51.992;5.896;2022-09-09T16:03:36;19.40;99.90
56240;DHT22;42154;51.992;5.896;2022-09-09T16:06:02;19.30;99.90
56240;DHT22;42154;51.992;5.896;2022-09-09T16:08:36;19.30;99.90
56240;DHT22;42154;51.992;5.896;2022-09-09T16:11:17;19.00;99.90
56240;DHT22;42154;51.992;5.896;2022-09-09T16:13:47;18.50;99.90
56240;DHT22;42154;51.992;5.896;2022-09-09T16:16:14;18.20;99.90
56240;DHT22;42154;51.992;5.896;2022-09-09T16:18:43;18.10;99.90
56240;DHT22;42154;51.992;5.896;2022-09-09T16:21:31;18.00;99.90
56240;DHT22;42154;51.992;5.896;2022-09-09T16:24:00;18.00;99.90
56240;DHT22;42154;51.992;5.896;2022-09-09T16:26:26;18.00;99.90
56240;DHT22;42154;51.992;5.896;2022-09-09T16:28:53;18.00;99.90
56240;DHT22;42154;51.992;5.896;2022-09-09T16:31:22;18.00;99.90
56240;DHT22;42154;51.992;5.896;2022-09-09T16:33:49;18.10;99.90
56240;DHT22;42154;51.992;5.896;2022-09-09T16:36:26;18.20;99.90
56240;DHT22;42154;51.992;5.896;2022-09-09T16:38:57;18.30;99.90
56240;DHT22;42154;51.992;5.896;2022-09-09T16:41:23;18.30;99.90
56240;DHT22;42154;51.992;5.896;2022-09-09T16:43:58;18.30;99.90
56240;DHT22;42154;51.992;5.896;2022-09-09T16:46:25;18.40;99.90
56240;DHT22;42154;51.992;5.896;2022-09-09T16:48:52;18.40;99.90
56240;DHT22;42154;51.992;5.896;2022-09-09T16:51:23;18.50;99.90
56240;DHT22;42154;51.992;5.896;2022-09-09T16:53:50;18.50;99.90
56240;DHT22;42154;51.992;5.896;2022-09-09T16:56:19;18.50;99.90
56240;DHT22;42154;51.992;5.896;2022-09-09T16:58:50;18.50;99.90
56240;DHT22;42154;51.992;5.896;2022-09-09T17:01:16;18.50;99.90
56240;DHT22;42154;51.992;5.896;2022-09-09T17:03:42;18.50;99.90
56240;DHT22;42154;51.992;5.896;2022-09-09T17:06:12;18.50;99.90
56240;DHT22;42154;51.992;5.896;2022-09-09T17:08:39;18.50;99.90
56240;DHT22;42154;51.992;5.896;2022-09-09T17:11:14;18.50;99.90
56240;DHT22;42154;51.992;5.896;2022-09-09T17:13:43;18.50;99.90
56240;DHT22;42154;51.992;5.896;2022-09-09T17:16:10;18.40;99.90
56240;DHT22;42154;51.992;5.896;2022-09-09T17:18:36;18.50;99.90
56240;DHT22;42154;51.992;5.896;2022-09-09T17:21:04;18.50;99.90
56240;DHT22;42154;51.992;5.896;2022-09-09T17:23:30;18.40;99.90
56240;DHT22;42154;51.992;5.896;2022-09-09T17:25:57;18.50;99.90
56240;DHT22;42154;51.992;5.896;2022-09-09T17:28:23;18.40;99.90
56240;DHT22;42154;51.992;5.896;2022-09-09T17:30:53;18.50;99.90
56240;DHT22;42154;51.992;5.896;2022-09-09T17:33:19;18.40;99.90
56240;DHT22;42154;51.992;5.896;2022-09-09T17:35:46;18.40;99.90
56240;DHT22;42154;51.992;5.896;2022-09-09T17:38:13;18.30;99.90
56240;DHT22;42154;51.992;5.896;2022-09-09T17:40:38;18.30;99.90
56240;DHT22;42154;51.992;5.896;2022-09-09T17:43:04;18.20;99.90
56240;DHT22;42154;51.992;5.896;2022-09-09T17:45:30;18.20;99.90
56240;DHT22;42154;51.992;5.896;2022-09-09T17:47:56;18.10;99.90
56240;DHT22;42154;51.992;5.896;2022-09-09T17:50:22;18.00;99.90
56240;DHT22;42154;51.992;5.896;2022-09-09T17:52:48;17.90;99.90
56240;DHT22;42154;51.992;5.896;2022-09-09T17:55:14;17.90;99.90